sensor_id;sensor_type;location;lat;lon;timestamp;P1;durP1;ratioP1;P2;durP2;ratioP2
43337;SDS011;28933;52.492;13.434;2024-03-23T00:56:22;12.38;;;3.22;;
43337;SDS011;28933;52.492;13.434;2024-03-23T00:59:09;10.68;;;3.55;;
43337;SDS011;28933;52.492;13.434;2024-03-23T01:01:55;7.85;;;2.83;;
43337;SDS011;28933;52.492;13.434;2024-03-23T01:04:41;9.70;;;2.88;;
43337;SDS011;28933;52.492;13.434;2024-03-23T01:07:27;11.77;;;3.60;;
43337;SDS011;28933;52.492;13.434;2024-03-23T01:10:13;10.88;;;3.17;;
43337;SDS011;28933;52.492;13.434;2024-03-23T01:12:58;9.30;;;2.75;;
43337;SDS011;28933;52.492;13.434;2024-03-23T01:15:48;10.02;;;3.33;;
43337;SDS011;28933;52.492;13.434;2024-03-23T01:18:34;12.73;;;4.13;;
43337;SDS011;28933;52.492;13.434;2024-03-23T01:21:20;9.00;;;3.30;;
43337;SDS011;28933;52.492;13.434;2024-03-23T01:24:06;13.88;;;4.22;;
43337;SDS011;28933;52.492;13.434;2024-03-23T01:26:54;15.02;;;4.78;;
43337;SDS011;28933;52.492;13.434;2024-03-23T01:29:40;9.52;;;4.05;;
43337;SDS011;28933;52.492;13.434;2024-03-23T01:32:26;11.75;;;3.53;;
43337;SDS011;28933;52.492;13.434;2024-03-23T01:35:12;14.80;;;3.30;;
43337;SDS011;28933;52.492;13.434;2024-03-23T01:37:58;13.98;;;4.20;;
43337;SDS011;28933;52.492;13.434;2024-03-23T01:40:44;9.65;;;3.53;;
43337;SDS011;28933;52.492;13.434;2024-03-23T01:43:30;8.98;;;4.05;;
43337;SDS011;28933;52.492;13.434;2024-03-23T01:46:16;10.52;;;3.40;;
43337;SDS011;28933;52.492;13.434;2024-03-23T01:49:03;12.23;;;3.72;;
43337;SDS011;28933;52.492;13.434;2024-03-23T01:51:50;13.27;;;5.40;;
43337;SDS011;28933;52.492;13.434;2024-03-23T01:54:36;13.70;;;4.70;;
43337;SDS011;28933;52.492;13.434;2024-03-23T01:57:23;11.75;;;4.90;;
43337;SDS011;28933;52.492;13.434;2024-03-23T02:00:10;14.45;;;4.13;;
43337;SDS011;28933;52.492;13.434;2024-03-23T02:02:57;13.63;;;5.03;;
43337;SDS011;28933;52.492;13.434;2024-03-23T02:05:43;16.08;;;4.68;;
43337;SDS011;28933;52.492;13.434;2024-03-23T02:08:29;14.10;;;4.18;;
43337;SDS011;28933;52.492;13.434;2024-03-23T02:11:16;12.30;;;4.45;;
43337;SDS011;28933;52.492;13.434;2024-03-23T02:14:02;11.80;;;4.53;;
43337;SDS011;28933;52.492;13.434;2024-03-23T02:16:48;16.10;;;4.53;;
43337;SDS011;28933;52.492;13.434;2024-03-23T02:19:34;12.55;;;3.55;;
43337;SDS011;28933;52.492;13.434;2024-03-23T02:22:20;21.17;;;6.15;;
43337;SDS011;28933;52.492;13.434;2024-03-23T02:25:06;17.15;;;5.88;;
43337;SDS011;28933;52.492;13.434;2024-03-23T02:27:52;10.55;;;4.53;;
43337;SDS011;28933;52.492;13.434;2024-03-23T02:30:39;13.95;;;4.53;;
43337;SDS011;28933;52.492;13.434;2024-03-23T02:33:25;10.55;;;4.20;;
43337;SDS011;28933;52.492;13.434;2024-03-23T02:36:11;11.35;;;4.65;;
43337;SDS011;28933;52.492;13.434;2024-03-23T02:38:57;11.73;;;4.60;;
43337;SDS011;28933;52.492;13.434;2024-03-23T02:41:43;15.15;;;4.90;;
43337;SDS011;28933;52.492;13.434;2024-03-23T02:44:29;21.02;;;6.07;;
43337;SDS011;28933;52.492;13.434;2024-03-23T02:47:15;13.73;;;5.05;;
43337;SDS011;28933;52.492;13.434;2024-03-23T02:50:01;12.23;;;4.30;;
43337;SDS011;28933;52.492;13.434;2024-03-23T02:52:47;14.82;;;4.88;;
43337;SDS011;28933;52.492;13.434;2024-03-23T02:55:33;11.25;;;4.18;;
43337;SDS011;28933;52.492;13.434;2024-03-23T02:58:19;14.07;;;4.38;;
43337;SDS011;28933;52.492;13.434;2024-03-23T03:01:05;16.98;;;6.28;;
43337;SDS011;28933;52.492;13.434;2024-03-23T03:03:51;12.02;;;4.38;;
43337;SDS011;28933;52.492;13.434;2024-03-23T03:06:37;12.30;;;4.43;;
43337;SDS011;28933;52.492;13.434;2024-03-23T03:09:26;13.27;;;5.75;;
43337;SDS011;28933;52.492;13.434;2024-03-23T03:12:12;14.52;;;4.85;;
43337;SDS011;28933;52.492;13.434;2024-03-23T03:14:59;11.65;;;4.00;;
43337;SDS011;28933;52.492;13.434;2024-03-23T03:17:45;13.00;;;4.50;;
43337;SDS011;28933;52.492;13.434;2024-03-23T03:20:31;16.15;;;4.93;;
43337;SDS011;28933;52.492;13.434;2024-03-23T03:23:17;18.08;;;5.32;;
43337;SDS011;28933;52.492;13.434;2024-03-23T03:26:03;13.63;;;4.85;;
43337;SDS011;28933;52.492;13.434;2024-03-23T03:28:50;10.27;;;3.47;;
43337;SDS011;28933;52.492;13.434;2024-03-23T03:31:36;9.27;;;3.95;;
43337;SDS011;28933;52.492;13.434;2024-03-23T03:34:22;6.93;;;3.45;;
43337;SDS011;28933;52.492;13.434;2024-03-23T03:37:08;11.95;;;3.92;;
43337;SDS011;28933;52.492;13.434;2024-03-23T03:39:54;9.43;;;4.00;;
43337;SDS011;28933;52.492;13.434;2024-03-23T03:42:40;9.48;;;3.92;;
43337;SDS011;28933;52.492;13.434;2024-03-23T03:45:27;12.25;;;4.60;;
43337;SDS011;28933;52.492;13.434;2024-03-23T03:48:13;10.52;;;4.05;;
43337;SDS011;28933;52.492;13.434;2024-03-23T03:50:58;10.43;;;3.72;;
43337;SDS011;28933;52.492;13.434;2024-03-23T03:53:44;11.00;;;4.35;;
43337;SDS011;28933;52.492;13.434;2024-03-23T03:56:30;13.75;;;4.60;;
43337;SDS011;28933;52.492;13.434;2024-03-23T03:59:17;12.35;;;3.88;;
43337;SDS011;28933;52.492;13.434;2024-03-23T04:02:03;13.57;;;4.47;;
43337;SDS011;28933;52.492;13.434;2024-03-23T04:04:49;11.90;;;3.30;;
43337;SDS011;28933;52.492;13.434;2024-03-23T04:07:35;11.02;;;3.33;;
43337;SDS011;28933;52.492;13.434;2024-03-23T04:10:21;6.68;;;3.33;;
43337;SDS011;28933;52.492;13.434;2024-03-23T04:13:08;11.07;;;3.88;;
43337;SDS011;28933;52.492;13.434;2024-03-23T04:15:54;7.75;;;3.55;;
43337;SDS011;28933;52.492;13.434;2024-03-23T04:18:40;9.77;;;3.47;;
43337;SDS011;28933;52.492;13.434;2024-03-23T04:21:26;13.35;;;3.13;;
43337;SDS011;28933;52.492;13.434;2024-03-23T04:24:12;8.38;;;3.55;;
43337;SDS011;28933;52.492;13.434;2024-03-23T04:27:00;7.20;;;3.03;;
43337;SDS011;28933;52.492;13.434;2024-03-23T04:29:50;10.43;;;2.67;;
43337;SDS011;28933;52.492;13.434;2024-03-23T04:32:36;8.82;;;2.67;;
43337;SDS011;28933;52.492;13.434;2024-03-23T04:35:22;6.65;;;2.08;;
43337;SDS011;28933;52.492;13.434;2024-03-23T04:38:10;7.00;;;2.83;;
43337;SDS011;28933;52.492;13.434;2024-03-23T04:40:57;10.25;;;2.97;;
43337;SDS011;28933;52.492;13.434;2024-03-23T04:43:43;6.85;;;2.00;;
43337;SDS011;28933;52.492;13.434;2024-03-23T04:46:29;4.93;;;2.10;;
43337;SDS011;28933;52.492;13.434;2024-03-23T04:49:15;8.15;;;2.25;;
43337;SDS011;28933;52.492;13.434;2024-03-23T04:52:01;6.05;;;2.30;;
43337;SDS011;28933;52.492;13.434;2024-03-23T04:54:48;4.85;;;2.30;;
43337;SDS011;28933;52.492;13.434;2024-03-23T04:57:34;9.77;;;2.60;;
43337;SDS011;28933;52.492;13.434;2024-03-23T05:00:20;3.58;;;1.83;;
43337;SDS011;28933;52.492;13.434;2024-03-23T05:03:06;4.95;;;1.83;;
43337;SDS011;28933;52.492;13.434;2024-03-23T05:05:52;3.55;;;2.13;;
43337;SDS011;28933;52.492;13.434;2024-03-23T05:08:38;6.22;;;2.10;;
43337;SDS011;28933;52.492;13.434;2024-03-23T05:11:24;7.10;;;2.20;;
43337;SDS011;28933;52.492;13.434;2024-03-23T05:14:11;6.38;;;2.00;;
43337;SDS011;28933;52.492;13.434;2024-03-23T05:16:58;6.53;;;2.67;;
43337;SDS011;28933;52.492;13.434;2024-03-23T05:19:44;3.97;;;2.20;;
43337;SDS011;28933;52.492;13.434;2024-03-23T05:22:30;6.25;;;2.95;;
43337;SDS011;28933;52.492;13.434;2024-03-23T05:25:16;4.50;;;1.92;;
43337;SDS011;28933;52.492;13.434;2024-03-23T05:28:02;5.72;;;2.00;;
43337;SDS011;28933;52.492;13.434;2024-03-23T05:30:51;6.05;;;1.85;;
43337;SDS011;28933;52.492;13.434;2024-03-23T05:33:42;5.70;;;1.80;;
43337;SDS011;28933;52.492;13.434;2024-03-23T05:36:28;6.35;;;1.90;;
43337;SDS011;28933;52.492;13.434;2024-03-23T05:39:14;6.43;;;2.60;;
43337;SDS011;28933;52.492;13.434;2024-03-23T05:42:01;6.70;;;2.00;;
43337;SDS011;28933;52.492;13.434;2024-03-23T05:44:47;6.78;;;2.10;;
43337;SDS011;28933;52.492;13.434;2024-03-23T05:47:34;7.43;;;2.20;;
43337;SDS011;28933;52.492;13.434;2024-03-23T05:50:19;6.43;;;2.30;;
43337;SDS011;28933;52.492;13.434;2024-03-23T05:53:05;8.60;;;2.78;;
43337;SDS011;28933;52.492;13.434;2024-03-23T05:55:59;9.80;;;2.95;;
43337;SDS011;28933;52.492;13.434;2024-03-23T05:58:46;7.63;;;2.75;;
43337;SDS011;28933;52.492;13.434;2024-03-23T06:01:32;8.05;;;2.53;;
43337;SDS011;28933;52.492;13.434;2024-03-23T06:04:18;10.02;;;2.65;;
43337;SDS011;28933;52.492;13.434;2024-03-23T06:07:04;6.53;;;2.72;;
43337;SDS011;28933;52.492;13.434;2024-03-23T06:09:59;6.75;;;3.08;;
43337;SDS011;28933;52.492;13.434;2024-03-23T06:12:48;8.13;;;3.08;;
43337;SDS011;28933;52.492;13.434;2024-03-23T06:15:34;7.82;;;3.13;;
43337;SDS011;28933;52.492;13.434;2024-03-23T06:18:23;9.60;;;3.85;;
43337;SDS011;28933;52.492;13.434;2024-03-23T06:21:12;8.35;;;4.05;;
43337;SDS011;28933;52.492;13.434;2024-03-23T06:23:59;8.15;;;3.42;;
43337;SDS011;28933;52.492;13.434;2024-03-23T06:26:45;10.48;;;4.03;;
43337;SDS011;28933;52.492;13.434;2024-03-23T06:29:31;10.45;;;3.78;;
43337;SDS011;28933;52.492;13.434;2024-03-23T06:32:17;9.38;;;3.45;;
43337;SDS011;28933;52.492;13.434;2024-03-23T06:35:03;8.25;;;4.03;;
43337;SDS011;28933;52.492;13.434;2024-03-23T06:37:53;7.68;;;3.67;;
43337;SDS011;28933;52.492;13.434;2024-03-23T06:40:39;9.48;;;3.97;;
43337;SDS011;28933;52.492;13.434;2024-03-23T06:43:25;6.30;;;2.80;;
43337;SDS011;28933;52.492;13.434;2024-03-23T06:46:11;7.07;;;3.30;;
43337;SDS011;28933;52.492;13.434;2024-03-23T06:48:57;5.22;;;2.80;;
43337;SDS011;28933;52.492;13.434;2024-03-23T06:51:43;7.32;;;2.47;;
43337;SDS011;28933;52.492;13.434;2024-03-23T06:54:30;11.82;;;3.15;;
43337;SDS011;28933;52.492;13.434;2024-03-23T06:57:16;8.00;;;3.17;;
43337;SDS011;28933;52.492;13.434;2024-03-23T07:00:04;5.82;;;2.30;;
43337;SDS011;28933;52.492;13.434;2024-03-23T07:02:55;6.10;;;2.55;;
43337;SDS011;28933;52.492;13.434;2024-03-23T07:05:41;9.30;;;3.28;;
43337;SDS011;28933;52.492;13.434;2024-03-23T07:08:27;6.40;;;2.25;;
43337;SDS011;28933;52.492;13.434;2024-03-23T07:11:20;8.13;;;2.40;;
43337;SDS011;28933;52.492;13.434;2024-03-23T07:14:06;5.70;;;2.17;;
43337;SDS011;28933;52.492;13.434;2024-03-23T07:16:52;7.32;;;3.10;;
43337;SDS011;28933;52.492;13.434;2024-03-23T07:19:38;5.90;;;2.42;;
43337;SDS011;28933;52.492;13.434;2024-03-23T07:22:24;5.40;;;2.67;;
43337;SDS011;28933;52.492;13.434;2024-03-23T07:25:10;6.68;;;2.78;;
43337;SDS011;28933;52.492;13.434;2024-03-23T07:27:56;5.47;;;2.70;;
43337;SDS011;28933;52.492;13.434;2024-03-23T07:30:43;4.20;;;2.95;;
43337;SDS011;28933;52.492;13.434;2024-03-23T07:33:29;7.65;;;2.65;;
43337;SDS011;28933;52.492;13.434;2024-03-23T07:36:15;11.77;;;3.50;;
43337;SDS011;28933;52.492;13.434;2024-03-23T07:39:01;6.72;;;3.08;;
43337;SDS011;28933;52.492;13.434;2024-03-23T07:41:49;7.93;;;2.50;;
43337;SDS011;28933;52.492;13.434;2024-03-23T07:44:35;5.88;;;2.65;;
43337;SDS011;28933;52.492;13.434;2024-03-23T07:47:21;10.23;;;3.42;;
43337;SDS011;28933;52.492;13.434;2024-03-23T07:50:07;4.60;;;2.65;;
43337;SDS011;28933;52.492;13.434;2024-03-23T07:52:53;6.93;;;2.50;;
43337;SDS011;28933;52.492;13.434;2024-03-23T07:55:39;10.25;;;3.83;;
43337;SDS011;28933;52.492;13.434;2024-03-23T07:58:25;4.85;;;2.70;;
43337;SDS011;28933;52.492;13.434;2024-03-23T08:01:13;7.78;;;2.97;;
43337;SDS011;28933;52.492;13.434;2024-03-23T08:04:02;8.32;;;2.75;;
43337;SDS011;28933;52.492;13.434;2024-03-23T08:06:48;7.53;;;3.10;;
43337;SDS011;28933;52.492;13.434;2024-03-23T08:09:34;7.78;;;2.58;;
43337;SDS011;28933;52.492;13.434;2024-03-23T08:12:20;9.80;;;3.25;;
43337;SDS011;28933;52.492;13.434;2024-03-23T08:15:06;4.57;;;2.38;;
43337;SDS011;28933;52.492;13.434;2024-03-23T08:17:52;8.68;;;3.10;;
43337;SDS011;28933;52.492;13.434;2024-03-23T08:20:38;10.57;;;3.60;;
43337;SDS011;28933;52.492;13.434;2024-03-23T08:23:27;6.28;;;1.90;;
43337;SDS011;28933;52.492;13.434;2024-03-23T08:26:15;5.78;;;2.35;;
43337;SDS011;28933;52.492;13.434;2024-03-23T08:29:01;4.90;;;2.05;;
43337;SDS011;28933;52.492;13.434;2024-03-23T08:31:47;6.00;;;2.25;;
43337;SDS011;28933;52.492;13.434;2024-03-23T08:34:33;4.65;;;1.77;;
43337;SDS011;28933;52.492;13.434;2024-03-23T08:37:19;4.70;;;1.60;;
43337;SDS011;28933;52.492;13.434;2024-03-23T08:40:05;5.82;;;1.70;;
43337;SDS011;28933;52.492;13.434;2024-03-23T08:42:51;7.07;;;2.13;;
43337;SDS011;28933;52.492;13.434;2024-03-23T08:45:37;9.90;;;2.53;;
43337;SDS011;28933;52.492;13.434;2024-03-23T08:48:23;5.35;;;2.30;;
43337;SDS011;28933;52.492;13.434;2024-03-23T08:51:09;6.63;;;3.10;;
43337;SDS011;28933;52.492;13.434;2024-03-23T08:53:57;5.88;;;1.88;;
43337;SDS011;28933;52.492;13.434;2024-03-23T08:56:43;6.90;;;2.95;;
43337;SDS011;28933;52.492;13.434;2024-03-23T08:59:29;7.28;;;2.58;;
43337;SDS011;28933;52.492;13.434;2024-03-23T09:02:15;5.43;;;2.15;;
43337;SDS011;28933;52.492;13.434;2024-03-23T09:05:01;5.18;;;3.05;;
43337;SDS011;28933;52.492;13.434;2024-03-23T09:07:49;8.50;;;3.15;;
43337;SDS011;28933;52.492;13.434;2024-03-23T09:10:38;8.60;;;3.50;;
43337;SDS011;28933;52.492;13.434;2024-03-23T09:13:24;6.20;;;2.63;;
43337;SDS011;28933;52.492;13.434;2024-03-23T09:16:10;4.45;;;2.40;;
43337;SDS011;28933;52.492;13.434;2024-03-23T09:18:56;7.03;;;2.85;;
43337;SDS011;28933;52.492;13.434;2024-03-23T09:21:42;4.28;;;2.30;;
43337;SDS011;28933;52.492;13.434;2024-03-23T09:24:28;5.97;;;2.63;;
43337;SDS011;28933;52.492;13.434;2024-03-23T09:27:14;3.35;;;1.55;;
43337;SDS011;28933;52.492;13.434;2024-03-23T09:30:00;3.60;;;2.00;;
43337;SDS011;28933;52.492;13.434;2024-03-23T09:32:46;3.90;;;2.15;;
43337;SDS011;28933;52.492;13.434;2024-03-23T09:35:32;5.38;;;1.90;;
43337;SDS011;28933;52.492;13.434;2024-03-23T09:38:22;7.55;;;1.85;;
43337;SDS011;28933;52.492;13.434;2024-03-23T09:41:09;4.72;;;2.33;;
43337;SDS011;28933;52.492;13.434;2024-03-23T09:43:55;7.78;;;3.10;;
43337;SDS011;28933;52.492;13.434;2024-03-23T09:46:41;5.82;;;2.38;;
43337;SDS011;28933;52.492;13.434;2024-03-23T09:49:27;4.43;;;2.30;;
43337;SDS011;28933;52.492;13.434;2024-03-23T09:52:13;5.70;;;2.42;;
43337;SDS011;28933;52.492;13.434;2024-03-23T09:54:59;4.90;;;2.38;;
43337;SDS011;28933;52.492;13.434;2024-03-23T09:57:44;6.45;;;2.20;;
43337;SDS011;28933;52.492;13.434;2024-03-23T10:00:37;10.25;;;2.97;;
43337;SDS011;28933;52.492;13.434;2024-03-23T10:03:22;7.25;;;2.72;;
43337;SDS011;28933;52.492;13.434;2024-03-23T10:06:09;6.13;;;2.10;;
43337;SDS011;28933;52.492;13.434;2024-03-23T10:08:55;7.57;;;2.30;;
43337;SDS011;28933;52.492;13.434;2024-03-23T10:11:41;6.18;;;2.20;;
43337;SDS011;28933;52.492;13.434;2024-03-23T10:14:29;5.60;;;2.70;;
43337;SDS011;28933;52.492;13.434;2024-03-23T10:17:16;8.52;;;2.35;;
43337;SDS011;28933;52.492;13.434;2024-03-23T10:20:03;5.10;;;2.58;;
43337;SDS011;28933;52.492;13.434;2024-03-23T10:22:56;4.55;;;2.25;;
43337;SDS011;28933;52.492;13.434;2024-03-23T10:25:42;6.10;;;2.40;;
43337;SDS011;28933;52.492;13.434;2024-03-23T10:28:28;8.25;;;2.05;;
43337;SDS011;28933;52.492;13.434;2024-03-23T10:31:14;8.25;;;3.03;;
43337;SDS011;28933;52.492;13.434;2024-03-23T10:34:00;8.95;;;1.92;;
43337;SDS011;28933;52.492;13.434;2024-03-23T10:36:46;7.78;;;2.90;;
43337;SDS011;28933;52.492;13.434;2024-03-23T10:39:42;8.10;;;2.83;;
43337;SDS011;28933;52.492;13.434;2024-03-23T10:42:28;6.68;;;2.10;;
43337;SDS011;28933;52.492;13.434;2024-03-23T10:45:15;6.85;;;2.58;;
43337;SDS011;28933;52.492;13.434;2024-03-23T10:48:01;9.35;;;3.22;;
43337;SDS011;28933;52.492;13.434;2024-03-23T10:50:47;7.50;;;2.72;;
43337;SDS011;28933;52.492;13.434;2024-03-23T10:53:34;7.07;;;2.60;;
43337;SDS011;28933;52.492;13.434;2024-03-23T10:56:20;6.53;;;2.42;;
43337;SDS011;28933;52.492;13.434;2024-03-23T10:59:07;5.93;;;2.25;;
43337;SDS011;28933;52.492;13.434;2024-03-23T11:01:55;6.72;;;2.42;;
43337;SDS011;28933;52.492;13.434;2024-03-23T11:04:42;14.07;;;3.30;;
43337;SDS011;28933;52.492;13.434;2024-03-23T11:07:29;5.85;;;2.47;;
43337;SDS011;28933;52.492;13.434;2024-03-23T11:10:27;7.68;;;2.65;;
43337;SDS011;28933;52.492;13.434;2024-03-23T11:13:23;6.03;;;3.00;;
43337;SDS011;28933;52.492;13.434;2024-03-23T11:16:16;5.72;;;2.20;;
43337;SDS011;28933;52.492;13.434;2024-03-23T11:25:27;8.25;;;2.58;;
43337;SDS011;28933;52.492;13.434;2024-03-23T11:28:14;7.32;;;3.38;;
43337;SDS011;28933;52.492;13.434;2024-03-23T11:31:01;8.80;;;3.22;;
43337;SDS011;28933;52.492;13.434;2024-03-23T11:33:47;6.78;;;3.05;;
43337;SDS011;28933;52.492;13.434;2024-03-23T11:36:33;6.18;;;2.95;;
43337;SDS011;28933;52.492;13.434;2024-03-23T11:39:19;8.00;;;3.00;;
43337;SDS011;28933;52.492;13.434;2024-03-23T11:42:06;7.38;;;3.95;;
43337;SDS011;28933;52.492;13.434;2024-03-23T11:44:52;5.18;;;2.85;;
43337;SDS011;28933;52.492;13.434;2024-03-23T11:47:38;8.38;;;3.03;;
43337;SDS011;28933;52.492;13.434;2024-03-23T11:50:24;9.73;;;3.22;;
43337;SDS011;28933;52.492;13.434;2024-03-23T11:56:08;10.43;;;3.35;;
43337;SDS011;28933;52.492;13.434;2024-03-23T11:58:54;8.80;;;3.30;;
43337;SDS011;28933;52.492;13.434;2024-03-23T12:01:40;5.90;;;3.28;;
43337;SDS011;28933;52.492;13.434;2024-03-23T12:04:27;5.55;;;2.53;;
43337;SDS011;28933;52.492;13.434;2024-03-23T12:07:20;6.18;;;3.28;;
43337;SDS011;28933;52.492;13.434;2024-03-23T12:10:07;9.73;;;2.78;;
43337;SDS011;28933;52.492;13.434;2024-03-23T12:13:00;6.50;;;2.08;;
43337;SDS011;28933;52.492;13.434;2024-03-23T12:15:47;8.32;;;2.92;;
43337;SDS011;28933;52.492;13.434;2024-03-23T12:18:36;7.65;;;2.70;;
43337;SDS011;28933;52.492;13.434;2024-03-23T12:21:25;4.78;;;2.33;;
43337;SDS011;28933;52.492;13.434;2024-03-23T12:24:11;9.13;;;2.78;;
43337;SDS011;28933;52.492;13.434;2024-03-23T12:27:01;9.32;;;2.85;;
43337;SDS011;28933;52.492;13.434;2024-03-23T12:29:51;6.78;;;2.50;;
43337;SDS011;28933;52.492;13.434;2024-03-23T12:32:37;10.45;;;3.58;;
43337;SDS011;28933;52.492;13.434;2024-03-23T12:35:23;6.43;;;2.30;;
43337;SDS011;28933;52.492;13.434;2024-03-23T12:38:09;9.13;;;2.58;;
43337;SDS011;28933;52.492;13.434;2024-03-23T12:40:55;6.85;;;2.20;;
43337;SDS011;28933;52.492;13.434;2024-03-23T12:43:41;5.88;;;2.85;;
43337;SDS011;28933;52.492;13.434;2024-03-23T12:46:28;5.03;;;2.60;;
43337;SDS011;28933;52.492;13.434;2024-03-23T12:49:14;4.82;;;2.70;;
43337;SDS011;28933;52.492;13.434;2024-03-23T12:52:00;7.15;;;2.50;;
43337;SDS011;28933;52.492;13.434;2024-03-23T12:54:47;7.70;;;2.47;;
43337;SDS011;28933;52.492;13.434;2024-03-23T12:57:34;5.63;;;2.10;;
43337;SDS011;28933;52.492;13.434;2024-03-23T13:00:20;4.03;;;1.83;;
43337;SDS011;28933;52.492;13.434;2024-03-23T13:03:06;6.07;;;2.28;;
43337;SDS011;28933;52.492;13.434;2024-03-23T13:05:58;3.95;;;1.90;;
43337;SDS011;28933;52.492;13.434;2024-03-23T13:08:45;3.85;;;2.13;;
43337;SDS011;28933;52.492;13.434;2024-03-23T13:11:31;4.80;;;1.83;;
43337;SDS011;28933;52.492;13.434;2024-03-23T13:14:17;5.47;;;1.70;;
43337;SDS011;28933;52.492;13.434;2024-03-23T13:17:03;4.63;;;1.40;;
43337;SDS011;28933;52.492;13.434;2024-03-23T13:19:49;5.40;;;1.92;;
43337;SDS011;28933;52.492;13.434;2024-03-23T13:22:36;3.72;;;2.00;;
43337;SDS011;28933;52.492;13.434;2024-03-23T13:25:22;4.78;;;2.10;;
43337;SDS011;28933;52.492;13.434;2024-03-23T13:28:08;7.00;;;2.55;;
43337;SDS011;28933;52.492;13.434;2024-03-23T13:30:55;5.90;;;2.15;;
43337;SDS011;28933;52.492;13.434;2024-03-23T13:33:43;5.55;;;2.03;;
43337;SDS011;28933;52.492;13.434;2024-03-23T13:36:29;5.35;;;1.92;;
43337;SDS011;28933;52.492;13.434;2024-03-23T13:39:16;3.80;;;2.15;;
43337;SDS011;28933;52.492;13.434;2024-03-23T13:42:02;4.35;;;2.33;;
43337;SDS011;28933;52.492;13.434;2024-03-23T13:44:49;6.72;;;2.90;;
43337;SDS011;28933;52.492;13.434;2024-03-23T13:47:35;6.40;;;2.50;;
43337;SDS011;28933;52.492;13.434;2024-03-23T13:50:21;6.35;;;2.50;;
43337;SDS011;28933;52.492;13.434;2024-03-23T13:53:07;5.15;;;2.22;;
43337;SDS011;28933;52.492;13.434;2024-03-23T13:55:54;8.63;;;2.80;;
43337;SDS011;28933;52.492;13.434;2024-03-23T13:58:40;5.80;;;2.78;;
43337;SDS011;28933;52.492;13.434;2024-03-23T14:01:31;4.57;;;2.30;;
43337;SDS011;28933;52.492;13.434;2024-03-23T14:04:17;5.57;;;2.55;;
43337;SDS011;28933;52.492;13.434;2024-03-23T14:07:05;7.78;;;3.20;;
43337;SDS011;28933;52.492;13.434;2024-03-23T14:09:52;11.52;;;3.08;;
43337;SDS011;28933;52.492;13.434;2024-03-23T14:12:40;8.48;;;2.72;;
43337;SDS011;28933;52.492;13.434;2024-03-23T14:15:27;8.77;;;3.42;;
43337;SDS011;28933;52.492;13.434;2024-03-23T14:18:13;5.78;;;2.50;;
43337;SDS011;28933;52.492;13.434;2024-03-23T14:20:59;10.85;;;3.65;;
43337;SDS011;28933;52.492;13.434;2024-03-23T14:23:46;6.32;;;2.75;;
43337;SDS011;28933;52.492;13.434;2024-03-23T14:26:35;8.30;;;3.60;;
43337;SDS011;28933;52.492;13.434;2024-03-23T14:29:21;6.45;;;2.72;;
43337;SDS011;28933;52.492;13.434;2024-03-23T14:32:07;12.38;;;3.53;;
43337;SDS011;28933;52.492;13.434;2024-03-23T14:34:53;7.68;;;2.65;;
43337;SDS011;28933;52.492;13.434;2024-03-23T14:37:39;6.32;;;2.70;;
43337;SDS011;28933;52.492;13.434;2024-03-23T14:40:27;7.45;;;2.50;;
43337;SDS011;28933;52.492;13.434;2024-03-23T14:43:13;6.63;;;3.17;;
43337;SDS011;28933;52.492;13.434;2024-03-23T14:48:56;5.10;;;2.30;;
43337;SDS011;28933;52.492;13.434;2024-03-23T14:51:43;6.45;;;2.45;;
43337;SDS011;28933;52.492;13.434;2024-03-23T14:54:29;4.88;;;1.92;;
43337;SDS011;28933;52.492;13.434;2024-03-23T14:57:15;7.28;;;2.17;;
43337;SDS011;28933;52.492;13.434;2024-03-23T15:00:01;8.73;;;2.92;;
43337;SDS011;28933;52.492;13.434;2024-03-23T15:02:50;6.13;;;2.60;;
43337;SDS011;28933;52.492;13.434;2024-03-23T15:05:36;6.80;;;2.33;;
43337;SDS011;28933;52.492;13.434;2024-03-23T15:08:22;4.60;;;2.88;;
43337;SDS011;28933;52.492;13.434;2024-03-23T15:11:08;6.20;;;2.97;;
43337;SDS011;28933;52.492;13.434;2024-03-23T15:13:54;3.88;;;2.25;;
43337;SDS011;28933;52.492;13.434;2024-03-23T15:16:40;6.00;;;3.10;;
43337;SDS011;28933;52.492;13.434;2024-03-23T15:19:27;4.15;;;2.65;;
43337;SDS011;28933;52.492;13.434;2024-03-23T15:22:14;5.35;;;2.60;;
43337;SDS011;28933;52.492;13.434;2024-03-23T15:25:00;7.10;;;3.47;;
43337;SDS011;28933;52.492;13.434;2024-03-23T15:27:46;5.78;;;2.97;;
43337;SDS011;28933;52.492;13.434;2024-03-23T15:30:32;4.38;;;2.22;;
43337;SDS011;28933;52.492;13.434;2024-03-23T15:33:19;4.15;;;2.30;;
43337;SDS011;28933;52.492;13.434;2024-03-23T15:36:05;4.63;;;2.15;;
43337;SDS011;28933;52.492;13.434;2024-03-23T15:38:51;4.15;;;1.92;;
43337;SDS011;28933;52.492;13.434;2024-03-23T15:41:37;3.85;;;2.42;;
43337;SDS011;28933;52.492;13.434;2024-03-23T15:44:23;3.83;;;1.83;;
43337;SDS011;28933;52.492;13.434;2024-03-23T15:47:09;4.75;;;2.33;;
43337;SDS011;28933;52.492;13.434;2024-03-23T15:49:56;5.07;;;2.08;;
43337;SDS011;28933;52.492;13.434;2024-03-23T15:52:42;6.10;;;2.80;;
43337;SDS011;28933;52.492;13.434;2024-03-23T15:55:28;7.03;;;2.40;;
43337;SDS011;28933;52.492;13.434;2024-03-23T15:58:14;7.25;;;3.13;;
43337;SDS011;28933;52.492;13.434;2024-03-23T16:01:05;6.18;;;2.60;;
43337;SDS011;28933;52.492;13.434;2024-03-23T16:03:58;5.28;;;2.15;;
43337;SDS011;28933;52.492;13.434;2024-03-23T16:06:45;5.20;;;2.53;;
43337;SDS011;28933;52.492;13.434;2024-03-23T16:09:31;3.08;;;1.60;;
43337;SDS011;28933;52.492;13.434;2024-03-23T16:12:17;4.93;;;2.50;;
43337;SDS011;28933;52.492;13.434;2024-03-23T16:15:03;4.38;;;2.05;;
43337;SDS011;28933;52.492;13.434;2024-03-23T16:17:50;5.32;;;1.63;;
43337;SDS011;28933;52.492;13.434;2024-03-23T16:20:36;6.20;;;3.15;;
43337;SDS011;28933;52.492;13.434;2024-03-23T16:23:23;4.90;;;2.80;;
43337;SDS011;28933;52.492;13.434;2024-03-23T16:26:09;7.38;;;2.95;;
43337;SDS011;28933;52.492;13.434;2024-03-23T16:28:57;4.90;;;2.42;;
43337;SDS011;28933;52.492;13.434;2024-03-23T16:31:44;5.68;;;2.42;;
43337;SDS011;28933;52.492;13.434;2024-03-23T16:34:29;7.40;;;3.60;;
43337;SDS011;28933;52.492;13.434;2024-03-23T16:37:15;4.68;;;2.65;;
43337;SDS011;28933;52.492;13.434;2024-03-23T16:40:02;5.10;;;2.72;;
43337;SDS011;28933;52.492;13.434;2024-03-23T16:42:48;8.80;;;2.60;;
43337;SDS011;28933;52.492;13.434;2024-03-23T16:45:34;4.85;;;2.10;;
43337;SDS011;28933;52.492;13.434;2024-03-23T16:48:20;4.13;;;1.95;;
43337;SDS011;28933;52.492;13.434;2024-03-23T16:51:07;5.05;;;2.72;;
43337;SDS011;28933;52.492;13.434;2024-03-23T16:53:54;8.60;;;2.75;;
43337;SDS011;28933;52.492;13.434;2024-03-23T16:56:44;4.35;;;2.42;;
43337;SDS011;28933;52.492;13.434;2024-03-23T16:59:30;3.22;;;1.73;;
43337;SDS011;28933;52.492;13.434;2024-03-23T17:02:16;5.20;;;2.40;;
43337;SDS011;28933;52.492;13.434;2024-03-23T17:05:02;6.97;;;2.30;;
43337;SDS011;28933;52.492;13.434;2024-03-23T17:07:48;4.90;;;2.45;;
43337;SDS011;28933;52.492;13.434;2024-03-23T17:10:34;5.55;;;2.97;;
43337;SDS011;28933;52.492;13.434;2024-03-23T17:13:20;6.13;;;2.85;;
43337;SDS011;28933;52.492;13.434;2024-03-23T17:16:06;4.55;;;2.85;;
43337;SDS011;28933;52.492;13.434;2024-03-23T17:18:53;5.78;;;3.58;;
43337;SDS011;28933;52.492;13.434;2024-03-23T17:21:39;5.68;;;3.00;;
43337;SDS011;28933;52.492;13.434;2024-03-23T17:24:26;7.43;;;4.20;;
43337;SDS011;28933;52.492;13.434;2024-03-23T17:27:12;9.60;;;4.50;;
43337;SDS011;28933;52.492;13.434;2024-03-23T17:29:58;11.27;;;4.82;;
43337;SDS011;28933;52.492;13.434;2024-03-23T17:32:44;13.75;;;6.07;;